sensor_id;sensor_type;location;lat;lon;timestamp;temperature;humidity
27559;DHT22;15002;52.028;5.670;2024-01-30T00:00:17;12.60;99.90
27559;DHT22;15002;52.028;5.670;2024-01-30T00:02:42;12.60;99.90
27559;DHT22;15002;52.028;5.670;2024-01-30T00:05:08;12.50;99.90
27559;DHT22;15002;52.028;5.670;2024-01-30T00:07:34;12.60;99.90
27559;DHT22;15002;52.028;5.670;2024-01-30T00:09:59;12.70;99.90
27559;DHT22;15002;52.028;5.670;2024-01-30T00:12:25;12.60;99.90
27559;DHT22;15002;52.028;5.670;2024-01-30T00:14:51;12.70;99.90
27559;DHT22;15002;52.028;5.670;2024-01-30T00:17:17;12.80;99.90
27559;DHT22;15002;52.028;5.670;2024-01-30T00:19:43;12.80;99.90
27559;DHT22;15002;52.028;5.670;2024-01-30T00:22:08;12.70;99.90
27559;DHT22;15002;52.028;5.670;2024-01-30T00:24:34;12.60;99.90
27559;DHT22;15002;52.028;5.670;2024-01-30T00:26:59;12.60;99.90
27559;DHT22;15002;52.028;5.670;2024-01-30T00:29:25;12.90;99.90
27559;DHT22;15002;52.028;5.670;2024-01-30T00:31:55;12.80;99.90
27559;DHT22;15002;52.028;5.670;2024-01-30T00:34:21;12.60;99.90
27559;DHT22;15002;52.028;5.670;2024-01-30T00:36:46;12.60;99.90
27559;DHT22;15002;52.028;5.670;2024-01-30T00:39:12;12.60;99.90
27559;DHT22;15002;52.028;5.670;2024-01-30T00:41:38;12.60;99.90
27559;DHT22;15002;52.028;5.670;2024-01-30T00:44:03;12.60;99.90
27559;DHT22;15002;52.028;5.670;2024-01-30T00:46:29;12.60;99.90
27559;DHT22;15002;52.028;5.670;2024-01-30T00:48:55;12.50;99.90
27559;DHT22;15002;52.028;5.670;2024-01-30T00:51:20;12.70;99.90
27559;DHT22;15002;52.028;5.670;2024-01-30T00:53:47;12.50;99.90
27559;DHT22;15002;52.028;5.670;2024-01-30T00:56:12;12.50;99.90
27559;DHT22;15002;52.028;5.670;2024-01-30T00:58:38;12.40;99.90
27559;DHT22;15002;52.028;5.670;2024-01-30T01:01:04;12.40;99.90
27559;DHT22;15002;52.028;5.670;2024-01-30T01:03:30;12.30;99.90
27559;DHT22;15002;52.028;5.670;2024-01-30T01:05:55;12.40;99.90
27559;DHT22;15002;52.028;5.670;2024-01-30T01:08:21;12.30;99.90
27559;DHT22;15002;52.028;5.670;2024-01-30T01:10:47;12.30;99.90
27559;DHT22;15002;52.028;5.670;2024-01-30T01:13:12;12.30;99.90
27559;DHT22;15002;52.028;5.670;2024-01-30T01:15:38;12.40;99.90
27559;DHT22;15002;52.028;5.670;2024-01-30T01:18:04;12.40;99.90
27559;DHT22;15002;52.028;5.670;2024-01-30T01:20:29;12.10;99.90
27559;DHT22;15002;52.028;5.670;2024-01-30T01:22:55;12.20;99.90
27559;DHT22;15002;52.028;5.670;2024-01-30T01:25:20;12.10;99.90
27559;DHT22;15002;52.028;5.670;2024-01-30T01:27:46;12.20;99.90
27559;DHT22;15002;52.028;5.670;2024-01-30T01:30:17;12.30;99.90
27559;DHT22;15002;52.028;5.670;2024-01-30T01:32:48;12.40;99.90
27559;DHT22;15002;52.028;5.670;2024-01-30T01:35:23;12.40;99.90
27559;DHT22;15002;52.028;5.670;2024-01-30T01:37:50;12.20;99.90
27559;DHT22;15002;52.028;5.670;2024-01-30T01:40:25;12.40;99.90
27559;DHT22;15002;52.028;5.670;2024-01-30T01:42:51;12.40;99.90
27559;DHT22;15002;52.028;5.670;2024-01-30T01:45:18;12.30;99.90
27559;DHT22;15002;52.028;5.670;2024-01-30T01:47:44;12.50;99.90
27559;DHT22;15002;52.028;5.670;2024-01-30T01:50:12;12.40;99.90
27559;DHT22;15002;52.028;5.670;2024-01-30T01:52:40;12.40;99.90
27559;DHT22;15002;52.028;5.670;2024-01-30T01:55:06;12.30;99.90
27559;DHT22;15002;52.028;5.670;2024-01-30T01:57:33;12.30;99.90
27559;DHT22;15002;52.028;5.670;2024-01-30T02:00:00;12.30;99.90
27559;DHT22;15002;52.028;5.670;2024-01-30T02:02:29;12.10;99.90
27559;DHT22;15002;52.028;5.670;2024-01-30T02:04:57;12.10;99.90
27559;DHT22;15002;52.028;5.670;2024-01-30T02:07:22;12.20;99.90
27559;DHT22;15002;52.028;5.670;2024-01-30T02:09:48;11.90;99.90
27559;DHT22;15002;52.028;5.670;2024-01-30T02:12:14;12.00;99.90
27559;DHT22;15002;52.028;5.670;2024-01-30T02:14:49;12.10;99.90
27559;DHT22;15002;52.028;5.670;2024-01-30T02:17:16;12.20;99.90
27559;DHT22;15002;52.028;5.670;2024-01-30T02:19:42;12.00;99.90
27559;DHT22;15002;52.028;5.670;2024-01-30T02:22:08;12.00;99.90
27559;DHT22;15002;52.028;5.670;2024-01-30T02:24:34;12.00;99.90
27559;DHT22;15002;52.028;5.670;2024-01-30T02:26:59;12.00;99.90
27559;DHT22;15002;52.028;5.670;2024-01-30T02:29:25;11.90;99.90
27559;DHT22;15002;52.028;5.670;2024-01-30T02:31:51;11.90;99.90
27559;DHT22;15002;52.028;5.670;2024-01-30T02:34:18;11.70;99.90
27559;DHT22;15002;52.028;5.670;2024-01-30T02:36:44;11.90;99.90
27559;DHT22;15002;52.028;5.670;2024-01-30T02:39:10;12.00;99.90
27559;DHT22;15002;52.028;5.670;2024-01-30T02:41:36;12.10;99.90
27559;DHT22;15002;52.028;5.670;2024-01-30T02:44:02;12.20;99.90
27559;DHT22;15002;52.028;5.670;2024-01-30T02:46:28;12.20;99.90
27559;DHT22;15002;52.028;5.670;2024-01-30T02:48:54;12.20;99.90
27559;DHT22;15002;52.028;5.670;2024-01-30T02:51:19;12.00;99.90
27559;DHT22;15002;52.028;5.670;2024-01-30T02:53:45;12.10;99.90
27559;DHT22;15002;52.028;5.670;2024-01-30T02:56:10;12.10;99.90
27559;DHT22;15002;52.028;5.670;2024-01-30T02:58:37;12.00;99.90
27559;DHT22;15002;52.028;5.670;2024-01-30T03:01:03;12.10;99.90
27559;DHT22;15002;52.028;5.670;2024-01-30T03:03:29;12.20;99.90
27559;DHT22;15002;52.028;5.670;2024-01-30T03:05:54;12.20;99.90
27559;DHT22;15002;52.028;5.670;2024-01-30T03:08:20;12.20;99.90
27559;DHT22;15002;52.028;5.670;2024-01-30T03:10:46;12.20;99.90
27559;DHT22;15002;52.028;5.670;2024-01-30T03:13:12;12.30;99.90
27559;DHT22;15002;52.028;5.670;2024-01-30T03:15:37;12.30;99.90
27559;DHT22;15002;52.028;5.670;2024-01-30T03:18:03;12.00;99.90
27559;DHT22;15002;52.028;5.670;2024-01-30T03:20:32;12.00;99.90
27559;DHT22;15002;52.028;5.670;2024-01-30T03:22:59;12.20;99.90
27559;DHT22;15002;52.028;5.670;2024-01-30T03:25:25;12.20;99.90
27559;DHT22;15002;52.028;5.670;2024-01-30T03:27:51;12.20;99.90
27559;DHT22;15002;52.028;5.670;2024-01-30T03:30:17;12.30;99.90
27559;DHT22;15002;52.028;5.670;2024-01-30T03:32:43;12.20;99.90
27559;DHT22;15002;52.028;5.670;2024-01-30T03:35:09;12.20;99.90
27559;DHT22;15002;52.028;5.670;2024-01-30T03:37:35;12.10;99.90
27559;DHT22;15002;52.028;5.670;2024-01-30T03:40:02;12.20;99.90
27559;DHT22;15002;52.028;5.670;2024-01-30T03:42:28;12.10;99.90
27559;DHT22;15002;52.028;5.670;2024-01-30T03:44:54;12.10;99.90
27559;DHT22;15002;52.028;5.670;2024-01-30T03:47:20;12.30;99.90
27559;DHT22;15002;52.028;5.670;2024-01-30T03:49:46;12.10;99.90
27559;DHT22;15002;52.028;5.670;2024-01-30T03:52:12;12.10;99.90
27559;DHT22;15002;52.028;5.670;2024-01-30T03:54:38;12.10;99.90
27559;DHT22;15002;52.028;5.670;2024-01-30T03:57:03;12.20;99.90
27559;DHT22;15002;52.028;5.670;2024-01-30T03:59:29;12.20;99.90
27559;DHT22;15002;52.028;5.670;2024-01-30T04:01:55;12.20;99.90
27559;DHT22;15002;52.028;5.670;2024-01-30T04:04:21;12.20;99.90
27559;DHT22;15002;52.028;5.670;2024-01-30T04:06:46;12.30;99.90
27559;DHT22;15002;52.028;5.670;2024-01-30T04:09:13;12.30;99.90
27559;DHT22;15002;52.028;5.670;2024-01-30T04:11:39;12.10;99.90
27559;DHT22;15002;52.028;5.670;2024-01-30T04:14:05;12.10;99.90
27559;DHT22;15002;52.028;5.670;2024-01-30T04:16:31;12.10;99.90
27559;DHT22;15002;52.028;5.670;2024-01-30T04:18:58;12.20;99.90
27559;DHT22;15002;52.028;5.670;2024-01-30T04:21:24;12.20;99.90
27559;DHT22;15002;52.028;5.670;2024-01-30T04:23:51;12.10;99.90
27559;DHT22;15002;52.028;5.670;2024-01-30T04:26:16;12.20;99.90
27559;DHT22;15002;52.028;5.670;2024-01-30T04:28:44;12.40;99.90
27559;DHT22;15002;52.028;5.670;2024-01-30T04:31:09;12.30;99.90
27559;DHT22;15002;52.028;5.670;2024-01-30T04:33:35;12.30;99.90
27559;DHT22;15002;52.028;5.670;2024-01-30T04:36:01;12.40;99.90
27559;DHT22;15002;52.028;5.670;2024-01-30T04:38:27;12.10;99.90
27559;DHT22;15002;52.028;5.670;2024-01-30T04:40:52;12.20;99.90
27559;DHT22;15002;52.028;5.670;2024-01-30T04:43:18;12.40;99.90
27559;DHT22;15002;52.028;5.670;2024-01-30T04:45:44;12.20;99.90
27559;DHT22;15002;52.028;5.670;2024-01-30T04:48:10;12.20;99.90
27559;DHT22;15002;52.028;5.670;2024-01-30T04:50:36;12.30;99.90
27559;DHT22;15002;52.028;5.670;2024-01-30T04:53:01;12.20;99.90
27559;DHT22;15002;52.028;5.670;2024-01-30T04:55:27;12.10;99.90
27559;DHT22;15002;52.028;5.670;2024-01-30T04:57:53;12.30;99.90
27559;DHT22;15002;52.028;5.670;2024-01-30T05:00:19;12.40;99.90
27559;DHT22;15002;52.028;5.670;2024-01-30T05:02:44;12.30;99.90
27559;DHT22;15002;52.028;5.670;2024-01-30T05:05:10;12.20;99.90
27559;DHT22;15002;52.028;5.670;2024-01-30T05:07:36;12.40;99.90
27559;DHT22;15002;52.028;5.670;2024-01-30T05:10:02;12.20;99.90
27559;DHT22;15002;52.028;5.670;2024-01-30T05:12:28;12.00;99.90
27559;DHT22;15002;52.028;5.670;2024-01-30T05:14:54;12.00;99.90
27559;DHT22;15002;52.028;5.670;2024-01-30T05:17:20;12.00;99.90
27559;DHT22;15002;52.028;5.670;2024-01-30T05:19:46;11.90;99.90
27559;DHT22;15002;52.028;5.670;2024-01-30T05:22:11;12.10;99.90
27559;DHT22;15002;52.028;5.670;2024-01-30T05:24:41;12.00;99.90
27559;DHT22;15002;52.028;5.670;2024-01-30T05:27:08;12.20;99.90
27559;DHT22;15002;52.028;5.670;2024-01-30T05:29:33;12.10;99.90
27559;DHT22;15002;52.028;5.670;2024-01-30T05:31:59;12.00;99.90
27559;DHT22;15002;52.028;5.670;2024-01-30T05:34:24;12.30;99.90
27559;DHT22;15002;52.028;5.670;2024-01-30T05:36:50;12.20;99.90
27559;DHT22;15002;52.028;5.670;2024-01-30T05:39:16;12.50;99.90
27559;DHT22;15002;52.028;5.670;2024-01-30T05:41:41;12.60;99.90
27559;DHT22;15002;52.028;5.670;2024-01-30T05:44:07;12.50;99.90
27559;DHT22;15002;52.028;5.670;2024-01-30T05:46:33;12.40;99.90
27559;DHT22;15002;52.028;5.670;2024-01-30T05:48:59;12.40;99.90
27559;DHT22;15002;52.028;5.670;2024-01-30T05:51:24;12.40;99.90
27559;DHT22;15002;52.028;5.670;2024-01-30T05:53:50;12.30;99.90
27559;DHT22;15002;52.028;5.670;2024-01-30T05:56:16;12.40;99.90
27559;DHT22;15002;52.028;5.670;2024-01-30T05:58:41;12.50;99.90
27559;DHT22;15002;52.028;5.670;2024-01-30T06:01:08;12.40;99.90
27559;DHT22;15002;52.028;5.670;2024-01-30T06:03:34;12.30;99.90
27559;DHT22;15002;52.028;5.670;2024-01-30T06:06:00;12.40;99.90
27559;DHT22;15002;52.028;5.670;2024-01-30T06:08:26;12.30;99.90
27559;DHT22;15002;52.028;5.670;2024-01-30T06:10:51;12.30;99.90
27559;DHT22;15002;52.028;5.670;2024-01-30T06:13:17;12.50;99.90
27559;DHT22;15002;52.028;5.670;2024-01-30T06:15:43;12.40;99.90
27559;DHT22;15002;52.028;5.670;2024-01-30T06:18:09;12.50;99.90
27559;DHT22;15002;52.028;5.670;2024-01-30T06:20:34;12.70;99.90
27559;DHT22;15002;52.028;5.670;2024-01-30T06:23:00;12.50;99.90
27559;DHT22;15002;52.028;5.670;2024-01-30T06:25:26;12.60;99.90
27559;DHT22;15002;52.028;5.670;2024-01-30T06:27:52;12.50;99.90
27559;DHT22;15002;52.028;5.670;2024-01-30T06:30:18;12.50;99.90
27559;DHT22;15002;52.028;5.670;2024-01-30T06:32:43;12.50;99.90
27559;DHT22;15002;52.028;5.670;2024-01-30T06:35:09;12.40;99.90
27559;DHT22;15002;52.028;5.670;2024-01-30T06:37:36;12.50;99.90
27559;DHT22;15002;52.028;5.670;2024-01-30T06:40:02;12.60;99.90
27559;DHT22;15002;52.028;5.670;2024-01-30T06:42:30;12.50;99.90
27559;DHT22;15002;52.028;5.670;2024-01-30T06:44:55;12.60;99.90
27559;DHT22;15002;52.028;5.670;2024-01-30T06:47:21;12.50;99.90
27559;DHT22;15002;52.028;5.670;2024-01-30T06:49:47;12.40;99.90
27559;DHT22;15002;52.028;5.670;2024-01-30T06:52:12;12.60;99.90
27559;DHT22;15002;52.028;5.670;2024-01-30T06:54:38;12.40;99.90
27559;DHT22;15002;52.028;5.670;2024-01-30T06:57:05;12.40;99.90
27559;DHT22;15002;52.028;5.670;2024-01-30T06:59:34;12.20;99.90
27559;DHT22;15002;52.028;5.670;2024-01-30T07:02:00;12.10;99.90
27559;DHT22;15002;52.028;5.670;2024-01-30T07:04:25;12.20;99.90
27559;DHT22;15002;52.028;5.670;2024-01-30T07:06:51;12.20;99.90
27559;DHT22;15002;52.028;5.670;2024-01-30T07:09:18;12.40;99.90
27559;DHT22;15002;52.028;5.670;2024-01-30T07:11:44;12.50;99.90
27559;DHT22;15002;52.028;5.670;2024-01-30T07:14:10;12.50;99.90
27559;DHT22;15002;52.028;5.670;2024-01-30T07:16:36;12.40;99.90
27559;DHT22;15002;52.028;5.670;2024-01-30T07:19:01;12.70;99.90
27559;DHT22;15002;52.028;5.670;2024-01-30T07:21:28;12.50;99.90
27559;DHT22;15002;52.028;5.670;2024-01-30T07:23:57;12.40;99.90
27559;DHT22;15002;52.028;5.670;2024-01-30T07:26:23;12.20;99.90
27559;DHT22;15002;52.028;5.670;2024-01-30T07:28:49;12.30;99.90
27559;DHT22;15002;52.028;5.670;2024-01-30T07:31:15;12.20;99.90
27559;DHT22;15002;52.028;5.670;2024-01-30T07:33:41;12.40;99.90
27559;DHT22;15002;52.028;5.670;2024-01-30T07:36:07;12.10;99.90
27559;DHT22;15002;52.028;5.670;2024-01-30T07:38:32;12.10;99.90
27559;DHT22;15002;52.028;5.670;2024-01-30T07:40:58;12.20;99.90
27559;DHT22;15002;52.028;5.670;2024-01-30T07:43:24;12.00;99.90
27559;DHT22;15002;52.028;5.670;2024-01-30T07:45:50;11.80;99.90
27559;DHT22;15002;52.028;5.670;2024-01-30T07:48:15;11.90;99.90
27559;DHT22;15002;52.028;5.670;2024-01-30T07:50:41;11.90;99.90
27559;DHT22;15002;52.028;5.670;2024-01-30T07:53:07;12.20;99.90
27559;DHT22;15002;52.028;5.670;2024-01-30T07:55:32;12.20;99.90
27559;DHT22;15002;52.028;5.670;2024-01-30T07:57:58;12.10;99.90
27559;DHT22;15002;52.028;5.670;2024-01-30T08:00:26;12.00;99.90
27559;DHT22;15002;52.028;5.670;2024-01-30T08:02:54;12.10;99.90
27559;DHT22;15002;52.028;5.670;2024-01-30T08:05:21;12.00;99.90
27559;DHT22;15002;52.028;5.670;2024-01-30T08:07:48;12.00;99.90
27559;DHT22;15002;52.028;5.670;2024-01-30T08:10:14;12.10;99.90
27559;DHT22;15002;52.028;5.670;2024-01-30T08:12:40;12.10;99.90
27559;DHT22;15002;52.028;5.670;2024-01-30T08:15:06;12.10;99.90
27559;DHT22;15002;52.028;5.670;2024-01-30T08:17:33;12.20;99.90
27559;DHT22;15002;52.028;5.670;2024-01-30T08:19:58;12.30;99.90
27559;DHT22;15002;52.028;5.670;2024-01-30T08:22:24;12.40;99.90
27559;DHT22;15002;52.028;5.670;2024-01-30T08:24:50;12.50;99.90
27559;DHT22;15002;52.028;5.670;2024-01-30T08:27:15;12.60;99.90
27559;DHT22;15002;52.028;5.670;2024-01-30T08:29:41;12.60;99.90
27559;DHT22;15002;52.028;5.670;2024-01-30T08:32:07;12.70;99.90
27559;DHT22;15002;52.028;5.670;2024-01-30T08:34:32;12.70;99.90
27559;DHT22;15002;52.028;5.670;2024-01-30T08:36:58;12.70;99.90
27559;DHT22;15002;52.028;5.670;2024-01-30T08:39:24;12.80;99.90
27559;DHT22;15002;52.028;5.670;2024-01-30T08:41:49;12.70;99.90
27559;DHT22;15002;52.028;5.670;2024-01-30T08:44:15;13.00;99.90
27559;DHT22;15002;52.028;5.670;2024-01-30T08:46:41;13.10;99.90
27559;DHT22;15002;52.028;5.670;2024-01-30T08:49:07;13.20;99.90
27559;DHT22;15002;52.028;5.670;2024-01-30T08:51:33;13.10;99.90
27559;DHT22;15002;52.028;5.670;2024-01-30T08:53:59;13.20;99.90
27559;DHT22;15002;52.028;5.670;2024-01-30T08:56:25;13.50;99.90
27559;DHT22;15002;52.028;5.670;2024-01-30T08:58:51;13.40;99.90
27559;DHT22;15002;52.028;5.670;2024-01-30T09:01:17;13.30;99.90
27559;DHT22;15002;52.028;5.670;2024-01-30T09:03:42;13.40;99.90
27559;DHT22;15002;52.028;5.670;2024-01-30T09:06:11;13.70;99.90
27559;DHT22;15002;52.028;5.670;2024-01-30T09:08:37;13.50;99.90
27559;DHT22;15002;52.028;5.670;2024-01-30T09:11:10;13.80;99.90
27559;DHT22;15002;52.028;5.670;2024-01-30T09:13:36;13.80;99.90
27559;DHT22;15002;52.028;5.670;2024-01-30T09:16:02;13.50;99.90
27559;DHT22;15002;52.028;5.670;2024-01-30T09:18:27;13.30;99.90
27559;DHT22;15002;52.028;5.670;2024-01-30T09:20:54;13.60;99.90
27559;DHT22;15002;52.028;5.670;2024-01-30T09:23:19;13.60;99.90
27559;DHT22;15002;52.028;5.670;2024-01-30T09:25:45;13.60;99.90
27559;DHT22;15002;52.028;5.670;2024-01-30T09:28:11;13.70;99.90
27559;DHT22;15002;52.028;5.670;2024-01-30T09:30:36;14.00;99.90
27559;DHT22;15002;52.028;5.670;2024-01-30T09:33:02;13.80;99.90
27559;DHT22;15002;52.028;5.670;2024-01-30T09:35:28;13.70;99.90
27559;DHT22;15002;52.028;5.670;2024-01-30T09:37:54;13.50;99.90
27559;DHT22;15002;52.028;5.670;2024-01-30T09:40:20;13.60;99.90
27559;DHT22;15002;52.028;5.670;2024-01-30T09:42:50;13.80;99.90
27559;DHT22;15002;52.028;5.670;2024-01-30T09:45:18;13.80;99.90
27559;DHT22;15002;52.028;5.670;2024-01-30T09:47:44;13.90;99.90
27559;DHT22;15002;52.028;5.670;2024-01-30T09:50:12;13.80;99.90
27559;DHT22;15002;52.028;5.670;2024-01-30T09:52:38;13.70;99.90
27559;DHT22;15002;52.028;5.670;2024-01-30T09:55:05;13.60;99.90
27559;DHT22;15002;52.028;5.670;2024-01-30T09:57:31;13.40;99.90
27559;DHT22;15002;52.028;5.670;2024-01-30T09:59:57;13.40;99.90
27559;DHT22;15002;52.028;5.670;2024-01-30T10:02:23;13.40;99.90
27559;DHT22;15002;52.028;5.670;2024-01-30T10:04:49;13.50;99.90
27559;DHT22;15002;52.028;5.670;2024-01-30T10:07:16;13.40;99.90
27559;DHT22;15002;52.028;5.670;2024-01-30T10:09:41;13.30;99.90
27559;DHT22;15002;52.028;5.670;2024-01-30T10:12:11;13.40;99.90
27559;DHT22;15002;52.028;5.670;2024-01-30T10:14:40;13.60;99.90
27559;DHT22;15002;52.028;5.670;2024-01-30T10:17:10;13.40;99.90
27559;DHT22;15002;52.028;5.670;2024-01-30T10:19:40;13.50;99.90
27559;DHT22;15002;52.028;5.670;2024-01-30T10:22:06;13.50;99.90
27559;DHT22;15002;52.028;5.670;2024-01-30T10:24:33;13.60;99.90
27559;DHT22;15002;52.028;5.670;2024-01-30T10:26:59;13.50;99.90
27559;DHT22;15002;52.028;5.670;2024-01-30T10:29:25;13.40;99.90
27559;DHT22;15002;52.028;5.670;2024-01-30T10:32:04;13.50;99.90
27559;DHT22;15002;52.028;5.670;2024-01-30T10:34:30;13.50;99.90
27559;DHT22;15002;52.028;5.670;2024-01-30T10:37:08;13.50;99.90
27559;DHT22;15002;52.028;5.670;2024-01-30T10:39:38;13.40;99.90
27559;DHT22;15002;52.028;5.670;2024-01-30T10:42:05;13.50;99.90
27559;DHT22;15002;52.028;5.670;2024-01-30T10:44:37;13.60;99.90
27559;DHT22;15002;52.028;5.670;2024-01-30T10:47:06;13.40;99.90
27559;DHT22;15002;52.028;5.670;2024-01-30T10:49:35;13.40;99.90
27559;DHT22;15002;52.028;5.670;2024-01-30T10:52:04;13.40;99.90
27559;DHT22;15002;52.028;5.670;2024-01-30T10:54:31;13.60;99.90
27559;DHT22;15002;52.028;5.670;2024-01-30T10:57:00;13.60;99.90
27559;DHT22;15002;52.028;5.670;2024-01-30T10:59:28;13.80;99.90
27559;DHT22;15002;52.028;5.670;2024-01-30T11:01:53;14.00;99.90
27559;DHT22;15002;52.028;5.670;2024-01-30T11:04:19;14.00;99.90
27559;DHT22;15002;52.028;5.670;2024-01-30T11:06:49;14.20;99.90
27559;DHT22;15002;52.028;5.670;2024-01-30T11:09:17;14.20;99.90
27559;DHT22;15002;52.028;5.670;2024-01-30T11:11:56;14.30;99.90
27559;DHT22;15002;52.028;5.670;2024-01-30T11:14:26;14.20;99.90
27559;DHT22;15002;52.028;5.670;2024-01-30T11:16:58;14.20;99.90
27559;DHT22;15002;52.028;5.670;2024-01-30T11:19:27;13.90;99.90
27559;DHT22;15002;52.028;5.670;2024-01-30T11:21:53;13.90;99.90
27559;DHT22;15002;52.028;5.670;2024-01-30T11:24:23;13.90;99.90
27559;DHT22;15002;52.028;5.670;2024-01-30T11:26:58;14.20;99.90
27559;DHT22;15002;52.028;5.670;2024-01-30T11:29:28;14.00;99.90
27559;DHT22;15002;52.028;5.670;2024-01-30T11:31:54;13.80;99.90
27559;DHT22;15002;52.028;5.670;2024-01-30T11:34:21;14.00;99.90
27559;DHT22;15002;52.028;5.670;2024-01-30T11:36:57;13.90;99.90
27559;DHT22;15002;52.028;5.670;2024-01-30T11:39:26;14.10;99.90
27559;DHT22;15002;52.028;5.670;2024-01-30T11:41:52;14.20;99.90
27559;DHT22;15002;52.028;5.670;2024-01-30T11:44:22;14.10;99.90
27559;DHT22;15002;52.028;5.670;2024-01-30T11:46:51;14.00;99.90
27559;DHT22;15002;52.028;5.670;2024-01-30T11:49:17;14.30;99.90
27559;DHT22;15002;52.028;5.670;2024-01-30T11:51:45;14.10;99.90
27559;DHT22;15002;52.028;5.670;2024-01-30T11:54:11;14.00;99.90
27559;DHT22;15002;52.028;5.670;2024-01-30T11:56:37;14.00;99.90
27559;DHT22;15002;52.028;5.670;2024-01-30T11:59:04;14.00;99.90
27559;DHT22;15002;52.028;5.670;2024-01-30T12:01:31;14.00;99.90
27559;DHT22;15002;52.028;5.670;2024-01-30T12:03:58;14.30;99.90
27559;DHT22;15002;52.028;5.670;2024-01-30T12:06:24;14.10;99.90
27559;DHT22;15002;52.028;5.670;2024-01-30T12:09:00;14.30;99.90
27559;DHT22;15002;52.028;5.670;2024-01-30T12:11:26;14.50;99.90
27559;DHT22;15002;52.028;5.670;2024-01-30T12:13:53;14.40;99.90
27559;DHT22;15002;52.028;5.670;2024-01-30T12:16:19;14.00;99.90
27559;DHT22;15002;52.028;5.670;2024-01-30T12:18:45;14.00;99.90
27559;DHT22;15002;52.028;5.670;2024-01-30T12:21:11;13.90;99.90
27559;DHT22;15002;52.028;5.670;2024-01-30T12:23:37;14.00;99.90
27559;DHT22;15002;52.028;5.670;2024-01-30T12:26:03;14.20;99.90
27559;DHT22;15002;52.028;5.670;2024-01-30T12:28:29;14.00;99.90
27559;DHT22;15002;52.028;5.670;2024-01-30T12:31:04;14.00;99.90
27559;DHT22;15002;52.028;5.670;2024-01-30T12:33:30;13.70;99.90
27559;DHT22;15002;52.028;5.670;2024-01-30T12:35:57;13.70;99.90
27559;DHT22;15002;52.028;5.670;2024-01-30T12:38:27;13.70;99.90
27559;DHT22;15002;52.028;5.670;2024-01-30T12:40:56;13.70;99.90
27559;DHT22;15002;52.028;5.670;2024-01-30T12:43:23;13.50;99.90
27559;DHT22;15002;52.028;5.670;2024-01-30T12:45:50;13.70;99.90
27559;DHT22;15002;52.028;5.670;2024-01-30T12:48:15;13.90;99.90
27559;DHT22;15002;52.028;5.670;2024-01-30T12:50:41;14.00;99.90
27559;DHT22;15002;52.028;5.670;2024-01-30T12:53:07;13.90;99.90
27559;DHT22;15002;52.028;5.670;2024-01-30T12:55:34;13.80;99.90
27559;DHT22;15002;52.028;5.670;2024-01-30T12:58:00;14.00;99.90
27559;DHT22;15002;52.028;5.670;2024-01-30T13:00:26;13.70;99.90
27559;DHT22;15002;52.028;5.670;2024-01-30T13:02:52;13.60;99.90
27559;DHT22;15002;52.028;5.670;2024-01-30T13:05:18;13.70;99.90
27559;DHT22;15002;52.028;5.670;2024-01-30T13:07:44;13.70;99.90
27559;DHT22;15002;52.028;5.670;2024-01-30T13:10:10;13.50;99.90
27559;DHT22;15002;52.028;5.670;2024-01-30T13:12:36;13.80;99.90
27559;DHT22;15002;52.028;5.670;2024-01-30T13:15:04;13.90;99.90
27559;DHT22;15002;52.028;5.670;2024-01-30T13:17:30;13.70;99.90
27559;DHT22;15002;52.028;5.670;2024-01-30T13:19:56;13.70;99.90
27559;DHT22;15002;52.028;5.670;2024-01-30T13:22:22;13.70;99.90
27559;DHT22;15002;52.028;5.670;2024-01-30T13:24:48;12.80;99.90
27559;DHT22;15002;52.028;5.670;2024-01-30T13:27:14;12.60;99.90
27559;DHT22;15002;52.028;5.670;2024-01-30T13:29:39;12.70;99.90
27559;DHT22;15002;52.028;5.670;2024-01-30T13:32:05;12.50;99.90
27559;DHT22;15002;52.028;5.670;2024-01-30T13:34:31;12.30;99.90
27559;DHT22;15002;52.028;5.670;2024-01-30T13:36:57;12.20;99.90
27559;DHT22;15002;52.028;5.670;2024-01-30T13:39:22;12.10;99.90
27559;DHT22;15002;52.028;5.670;2024-01-30T13:41:48;12.00;99.90
27559;DHT22;15002;52.028;5.670;2024-01-30T13:44:15;11.90;99.90
27559;DHT22;15002;52.028;5.670;2024-01-30T13:46:42;11.80;99.90
27559;DHT22;15002;52.028;5.670;2024-01-30T13:49:08;11.80;99.90
27559;DHT22;15002;52.028;5.670;2024-01-30T13:51:33;11.90;99.90
27559;DHT22;15002;52.028;5.670;2024-01-30T13:53:59;11.70;99.90
27559;DHT22;15002;52.028;5.670;2024-01-30T13:56:25;11.80;99.90
27559;DHT22;15002;52.028;5.670;2024-01-30T13:58:52;11.80;99.90
27559;DHT22;15002;52.028;5.670;2024-01-30T14:01:18;12.10;99.90
27559;DHT22;15002;52.028;5.670;2024-01-30T14:03:44;12.10;99.90
27559;DHT22;15002;52.028;5.670;2024-01-30T14:06:10;12.00;99.90
27559;DHT22;15002;52.028;5.670;2024-01-30T14:08:36;12.00;99.90
27559;DHT22;15002;52.028;5.670;2024-01-30T14:11:01;12.00;99.90
27559;DHT22;15002;52.028;5.670;2024-01-30T14:13:27;12.10;99.90
27559;DHT22;15002;52.028;5.670;2024-01-30T14:15:53;12.40;99.90
27559;DHT22;15002;52.028;5.670;2024-01-30T14:18:19;12.60;99.90
27559;DHT22;15002;52.028;5.670;2024-01-30T14:20:45;12.50;99.90
27559;DHT22;15002;52.028;5.670;2024-01-30T14:23:10;12.40;99.90
27559;DHT22;15002;52.028;5.670;2024-01-30T14:25:36;12.30;99.90
27559;DHT22;15002;52.028;5.670;2024-01-30T14:28:01;12.40;99.90
27559;DHT22;15002;52.028;5.670;2024-01-30T14:30:27;12.30;99.90
27559;DHT22;15002;52.028;5.670;2024-01-30T14:32:53;12.20;99.90
27559;DHT22;15002;52.028;5.670;2024-01-30T14:35:19;12.10;99.90
27559;DHT22;15002;52.028;5.670;2024-01-30T14:37:45;12.10;99.90
27559;DHT22;15002;52.028;5.670;2024-01-30T14:40:11;12.00;99.90
27559;DHT22;15002;52.028;5.670;2024-01-30T14:42:37;12.00;99.90
27559;DHT22;15002;52.028;5.670;2024-01-30T14:45:03;12.10;99.90
27559;DHT22;15002;52.028;5.670;2024-01-30T14:47:29;12.10;99.90
27559;DHT22;15002;52.028;5.670;2024-01-30T14:49:56;12.10;99.90
27559;DHT22;15002;52.028;5.670;2024-01-30T14:52:22;12.00;99.90
27559;DHT22;15002;52.028;5.670;2024-01-30T14:54:48;11.80;99.90
27559;DHT22;15002;52.028;5.670;2024-01-30T14:57:13;12.00;99.90
27559;DHT22;15002;52.028;5.670;2024-01-30T14:59:40;11.80;99.90
27559;DHT22;15002;52.028;5.670;2024-01-30T15:02:06;11.60;99.90
27559;DHT22;15002;52.028;5.670;2024-01-30T15:04:31;11.60;99.90
27559;DHT22;15002;52.028;5.670;2024-01-30T15:06:57;11.60;99.90
27559;DHT22;15002;52.028;5.670;2024-01-30T15:09:23;11.60;99.90
27559;DHT22;15002;52.028;5.670;2024-01-30T15:11:49;11.80;99.90
27559;DHT22;15002;52.028;5.670;2024-01-30T15:14:15;11.70;99.90
27559;DHT22;15002;52.028;5.670;2024-01-30T15:16:41;11.80;99.90
27559;DHT22;15002;52.028;5.670;2024-01-30T15:19:08;11.60;99.90
27559;DHT22;15002;52.028;5.670;2024-01-30T15:21:34;11.60;99.90
27559;DHT22;15002;52.028;5.670;2024-01-30T15:24:00;11.50;99.90